SBRJSBCT

Guest
Details From SBRJ - Santos-Dumont
To SBCT - Afonso Pena
Flight Number -
Tags decoded
Created
Modified
Stats Distance 365 nm / 675 km
Max Altitude 0 ft / 0 m
Waypoints 2
Social Downloads 1
Likes 0
Share VATSIM

Download

Looking for another format? Having issues loading an existing format? Contact us
Advertisement - Login to hide

Notes

Requested: SBRJ NAXOP ORANA SBCT Unmatched points: NAXOP ORANA

Route

SBRJ SBCT

ID Type Via Altitude Latitude Longitude Leg Dist Tot Dist Heading (true) Name
O SBRJ APT - 0 ft / 0 m -22.91046˚ -43.16313˚ - 0 nm - Santos-Dumont
O SBCT APT - 0 ft / 0 m -25.52888˚ -49.17306˚ 364 nm 364 nm 243° / 246° Afonso Pena

Altitude Profile

Advertisement - Login to hide

Weather


0- 5 10 15 20 25 30 35+ Temperature / ° C

Clouds and Precipitation
Forecast for 2017-12-11 06:00 UTC. Updated 32 minutes ago

Ground ~20,000 ft ~40,000 ft Winds

SBRJ

Details ICAO SBRJ (SDU)
Name Santos-Dumont
Region Brazil
Timezone Unknown (UTC+0.0)
Stats Elevation 11 ft / 3 m (AMSL)
Location -22.910460° -43.163133°
Runways 2
Magnetic Variation 22.781° W

METAR

SBRJ 110500Z 00000KT CAVOK 22/22 Q1003

Decode

TAF

TAF TAF SBRJ 101930Z 1100/1112 22005KT 9999 SCT020 TN22/1108Z TX25/1112Z BECMG 1100/1102 16005KT 7000 BECMG 1109/1111 04005KT 5000 BR BKN010 RMK PGZ

Decode

Departure Runways

ID Width Length Bearing (true) Bearing (mag) Surface Threshold Offset Overrun Length
02L 98 ft / 30 m 4,154 ft / 1,266 m 358.02° 20.80° Asphalt 0 ft / 0 m 80 ft / 24 m
02R 138 ft / 42 m 4,361 ft / 1,329 m 358.01° 20.79° Asphalt 0 ft / 0 m 80 ft / 24 m
20L 138 ft / 42 m 4,361 ft / 1,329 m 178.01° 200.79° Asphalt 0 ft / 0 m 80 ft / 24 m
20R 98 ft / 30 m 4,154 ft / 1,266 m 178.02° 200.80° Asphalt 0 ft / 0 m 95 ft / 29 m

SBCT

Details ICAO SBCT (CWB)
Name Afonso Pena
Region Brazil
Timezone America/Sao_Paulo (UTC-2.0)
Stats Elevation 2,988 ft / 911 m (AMSL)
Location -25.528885° -49.173062°
Runways 2
Magnetic Variation 19.612° W

METAR

SBCT 110500Z 02004KT CAVOK 19/17 Q1008

Decode

TAF

TAF SBCT 102200Z 1100/1124 04007KT 9999 SCT010 TN17/1107Z TX27/1118Z BECMG 1111/1112 34008KT SCT030 PROB40 TEMPO 1116/1120 10010KT 9999 VCSH BKN030 FEW035TCU RMK PEB

Decode

Destination Runways

ID Width Length Bearing (true) Bearing (mag) Surface Threshold Offset Overrun Length
11 148 ft / 45 m 5,909 ft / 1,801 m 91.79° 111.40° Asphalt 0 ft / 0 m 0 ft / 0 m
15 148 ft / 45 m 7,290 ft / 2,222 m 134.76° 154.37° Asphalt 0 ft / 0 m 190 ft / 58 m
29 148 ft / 45 m 5,909 ft / 1,801 m 271.78° 291.39° Asphalt 0 ft / 0 m 0 ft / 0 m
33 148 ft / 45 m 7,290 ft / 2,222 m 314.75° 334.36° Asphalt 0 ft / 0 m 185 ft / 56 m

Approach Navaids

Runway Type Ident Frequency Range Bearing (true) Bearing (mag) Slope Elevation
15 Localiser ICT 109.30 MHz 18 nm / 33 km 134.93° 154.54° - 2,990 ft / 911 m (AMSL)
15 Glidescope ICT 109.30 MHz 10 nm / 19 km 134.75° 154.37° 3.04° 2,990 ft / 911 m (AMSL)

Popular Alternatives